createdAt,value
2023-05-17T00:01:46.664Z,6.03
2023-05-17T00:04:14.677Z,5.87
2023-05-17T00:06:42.501Z,6.38
2023-05-17T00:09:10.412Z,4.93
2023-05-17T00:11:38.295Z,5.70
2023-05-17T00:14:06.401Z,4.60
2023-05-17T00:16:35.539Z,5.40
2023-05-17T00:19:03.464Z,6.03
2023-05-17T00:21:31.369Z,5.75
2023-05-17T00:23:59.206Z,4.25
2023-05-17T00:26:27.020Z,5.00
2023-05-17T00:28:54.814Z,5.15
2023-05-17T00:31:22.709Z,5.45
2023-05-17T00:33:54.290Z,7.30
2023-05-17T00:36:22.108Z,5.22
2023-05-17T00:38:50.261Z,5.97
2023-05-17T00:41:18.474Z,4.90
2023-05-17T00:43:46.311Z,4.88
2023-05-17T00:46:14.163Z,6.32
2023-05-17T00:48:42.178Z,5.53
2023-05-17T00:51:12.538Z,5.82
2023-05-17T00:53:40.571Z,5.57
2023-05-17T00:56:08.656Z,4.72
2023-05-17T00:58:37.708Z,11.13
2023-05-17T01:01:05.873Z,5.78
2023-05-17T01:03:33.866Z,6.30
2023-05-17T01:06:01.698Z,5.57
2023-05-17T01:08:31.149Z,3.78
2023-05-17T01:11:11.496Z,5.72
2023-05-17T01:13:44.421Z,6.30
2023-05-17T01:16:19.313Z,5.78
2023-05-17T01:18:51.757Z,5.53
2023-05-17T01:21:36.152Z,5.78
2023-05-17T01:24:26.357Z,5.93
2023-05-17T01:26:57.641Z,5.80
2023-05-17T01:29:29.528Z,6.22
2023-05-17T01:31:58.633Z,5.10
2023-05-17T01:34:27.013Z,6.75
2023-05-17T01:36:55.056Z,6.43
2023-05-17T01:39:23.188Z,3.90
2023-05-17T01:42:00.888Z,3.97
2023-05-17T01:44:34.415Z,5.50
2023-05-17T01:47:10.469Z,7.80
2023-05-17T01:49:41.419Z,4.93
2023-05-17T01:52:15.173Z,6.30
2023-05-17T01:54:50.693Z,4.75
2023-05-17T01:57:25.396Z,5.70
2023-05-17T01:59:54.119Z,7.68
2023-05-17T02:02:22.477Z,5.43
2023-05-17T02:04:51.534Z,5.45
2023-05-17T02:07:19.492Z,6.82
2023-05-17T02:09:47.340Z,6.47
2023-05-17T02:12:15.175Z,5.80
2023-05-17T02:14:44.356Z,7.28
2023-05-17T02:17:12.180Z,6.82
2023-05-17T02:19:40.057Z,6.22
2023-05-17T02:22:08.133Z,5.68
2023-05-17T02:24:36.333Z,5.43
2023-05-17T02:27:04.599Z,6.03
2023-05-17T02:29:32.437Z,7.03
2023-05-17T02:32:01.748Z,6.57
2023-05-17T02:34:29.681Z,7.22
2023-05-17T02:36:57.496Z,6.38
2023-05-17T02:39:25.502Z,5.22
2023-05-17T02:41:53.346Z,8.57
2023-05-17T02:44:21.202Z,7.85
2023-05-17T02:46:49.075Z,5.60
2023-05-17T02:49:18.343Z,5.67
2023-05-17T02:51:46.142Z,5.38
2023-05-17T02:54:13.961Z,5.78
2023-05-17T02:56:41.835Z,5.28
2023-05-17T02:59:09.792Z,4.95
2023-05-17T03:01:37.626Z,5.63
2023-05-17T03:04:05.606Z,5.18
2023-05-17T03:06:35.020Z,3.97
2023-05-17T03:09:02.927Z,6.33
2023-05-17T03:11:30.780Z,7.10
2023-05-17T03:13:58.598Z,6.40
2023-05-17T03:16:26.489Z,5.22
2023-05-17T03:18:54.463Z,5.60
2023-05-17T03:21:22.477Z,4.50
2023-05-17T03:23:51.655Z,5.00
2023-05-17T03:26:19.711Z,5.07
2023-05-17T03:28:47.552Z,6.18
2023-05-17T03:31:15.383Z,6.80
2023-05-17T03:33:43.328Z,5.45
2023-05-17T03:36:11.373Z,4.88
2023-05-17T03:38:39.193Z,4.27
2023-05-17T03:41:08.665Z,4.93
2023-05-17T03:43:36.510Z,5.00
2023-05-17T03:46:04.373Z,6.38
2023-05-17T03:48:35.176Z,5.28
2023-05-17T03:51:04.102Z,5.53
2023-05-17T03:53:31.918Z,4.80
2023-05-17T03:55:59.746Z,6.00
2023-05-17T03:58:29.087Z,4.75
2023-05-17T04:00:59.098Z,4.65
2023-05-17T04:03:30.217Z,5.10
2023-05-17T04:06:06.260Z,5.22
2023-05-17T04:08:34.556Z,5.10
2023-05-17T04:11:10.039Z,5.90
2023-05-17T04:13:39.303Z,7.32
2023-05-17T04:16:08.439Z,4.68
2023-05-17T04:18:37.090Z,3.90
2023-05-17T04:21:05.941Z,6.57
2023-05-17T04:23:36.115Z,4.65
2023-05-17T04:26:04.610Z,3.80
2023-05-17T04:28:35.671Z,6.03
2023-05-17T04:31:12.826Z,5.53
2023-05-17T04:33:43.965Z,6.28
2023-05-17T04:36:12.032Z,3.55
2023-05-17T04:38:39.944Z,6.03
2023-05-17T04:41:09.331Z,5.50
2023-05-17T04:43:37.269Z,5.82
2023-05-17T04:46:11.865Z,5.00
2023-05-17T04:48:40.120Z,5.03
2023-05-17T04:51:08.055Z,5.25
2023-05-17T04:53:35.915Z,5.03
2023-05-17T04:56:04.171Z,4.93
2023-05-17T04:58:32.614Z,3.42
2023-05-17T05:01:00.430Z,4.97
2023-05-17T05:03:30.609Z,4.22
2023-05-17T05:08:28.873Z,4.90
2023-05-17T05:10:56.767Z,4.65
2023-05-17T05:13:24.618Z,5.28
2023-05-17T05:15:52.485Z,3.80
2023-05-17T05:18:20.436Z,4.88
2023-05-17T05:20:50.805Z,5.07
2023-05-17T05:23:19.047Z,5.40
2023-05-17T05:25:47.153Z,5.55
2023-05-17T05:28:14.981Z,3.22
2023-05-17T05:30:42.810Z,6.07
2023-05-17T05:33:10.824Z,4.28
2023-05-17T05:35:38.714Z,5.82
2023-05-17T05:38:07.911Z,3.72
2023-05-17T05:40:36.333Z,4.72
2023-05-17T05:43:04.184Z,3.80
2023-05-17T05:45:31.999Z,4.68
2023-05-17T05:47:59.992Z,6.28
2023-05-17T05:50:28.117Z,5.13
2023-05-17T05:53:10.420Z,5.72
2023-05-17T05:55:49.632Z,3.92
2023-05-17T05:58:17.505Z,5.90
2023-05-17T06:00:45.334Z,4.67
2023-05-17T06:03:13.221Z,5.03
2023-05-17T06:05:41.244Z,5.53
2023-05-17T06:08:09.209Z,3.53
2023-05-17T06:10:37.096Z,3.70
2023-05-17T06:13:06.345Z,5.47
2023-05-17T06:15:34.589Z,3.85
2023-05-17T06:18:02.667Z,5.60
2023-05-17T06:20:31.020Z,5.97
2023-05-17T06:22:59.484Z,5.18
2023-05-17T06:25:27.360Z,5.43
2023-05-17T06:27:55.179Z,4.97
2023-05-17T06:30:24.398Z,5.53
2023-05-17T06:32:52.422Z,4.78
2023-05-17T06:35:20.641Z,4.57
2023-05-17T06:37:48.503Z,3.92
2023-05-17T06:40:31.529Z,3.97
2023-05-17T06:42:59.438Z,4.75
2023-05-17T06:45:28.987Z,5.63
2023-05-17T06:47:56.828Z,4.00
2023-05-17T06:50:27.067Z,6.03
2023-05-17T06:52:55.401Z,3.95
2023-05-17T06:55:23.469Z,4.55
2023-05-17T06:57:51.268Z,5.20
2023-05-17T07:00:19.883Z,4.18
2023-05-17T07:02:49.165Z,4.47
2023-05-17T07:05:17.259Z,4.95
2023-05-17T07:07:46.644Z,4.60
2023-05-17T07:10:14.472Z,6.57
2023-05-17T07:12:42.364Z,3.78
2023-05-17T07:15:11.316Z,5.93
2023-05-17T07:17:39.197Z,4.72
2023-05-17T07:20:09.757Z,4.37
2023-05-17T07:22:38.728Z,4.50
2023-05-17T07:25:08.246Z,4.65
2023-05-17T07:27:36.077Z,4.87
2023-05-17T07:30:04.434Z,5.78
2023-05-17T07:32:32.250Z,5.32
2023-05-17T07:35:00.223Z,5.05
2023-05-17T07:37:29.446Z,3.77
2023-05-17T07:39:57.256Z,4.50
2023-05-17T07:42:25.098Z,3.70
2023-05-17T07:44:52.934Z,4.30
2023-05-17T07:47:21.012Z,5.30
2023-05-17T07:49:48.836Z,4.70
2023-05-17T07:52:17.086Z,4.88
2023-05-17T07:54:46.489Z,4.68
2023-05-17T07:57:14.311Z,4.88
2023-05-17T07:59:42.158Z,3.80
2023-05-17T08:02:10.013Z,4.32
2023-05-17T08:04:38.338Z,4.32
2023-05-17T08:07:06.455Z,3.38
2023-05-17T08:09:34.322Z,3.65
2023-05-17T08:12:03.586Z,4.93
2023-05-17T08:14:31.502Z,3.25
2023-05-17T08:16:59.364Z,4.22
2023-05-17T08:19:27.607Z,5.10
2023-05-17T08:21:56.124Z,3.65
2023-05-17T08:24:23.954Z,6.00
2023-05-17T08:26:51.801Z,4.40
2023-05-17T08:29:21.079Z,3.97
2023-05-17T08:31:48.976Z,4.68
2023-05-17T08:34:16.888Z,4.22
2023-05-17T08:36:45.768Z,3.65
2023-05-17T08:39:13.758Z,4.65
2023-05-17T08:41:41.578Z,4.30
2023-05-17T08:44:10.242Z,4.30
2023-05-17T08:46:40.624Z,4.80
2023-05-17T08:49:12.985Z,3.70
2023-05-17T08:51:42.104Z,4.33
2023-05-17T08:54:09.991Z,5.47
2023-05-17T08:56:40.031Z,6.15
2023-05-17T08:59:09.462Z,3.60
2023-05-17T09:01:39.878Z,5.15
2023-05-17T09:04:10.660Z,5.63
2023-05-17T09:06:38.778Z,4.30
2023-05-17T09:09:08.332Z,4.82
2023-05-17T09:11:36.279Z,4.95
2023-05-17T09:14:05.802Z,5.18
2023-05-17T09:16:35.320Z,3.35
2023-05-17T09:19:05.867Z,3.45
2023-05-17T09:21:34.666Z,4.53
2023-05-17T09:24:06.976Z,4.28
2023-05-17T09:26:40.575Z,3.47
2023-05-17T09:29:12.433Z,3.53
2023-05-17T09:31:41.187Z,3.38
2023-05-17T09:34:10.904Z,5.18
2023-05-17T09:36:41.316Z,4.55
2023-05-17T09:39:12.149Z,4.65
2023-05-17T09:41:45.148Z,4.00
2023-05-17T09:44:13.684Z,3.88
2023-05-17T09:46:45.298Z,4.05
2023-05-17T09:49:14.824Z,4.57
2023-05-17T09:51:44.054Z,3.40
2023-05-17T09:54:13.183Z,2.65
2023-05-17T09:56:41.425Z,5.03
2023-05-17T09:59:13.266Z,5.15
2023-05-17T10:01:42.812Z,4.93
2023-05-17T10:04:12.167Z,4.55
2023-05-17T10:09:15.478Z,3.38
2023-05-17T10:11:47.082Z,3.63
2023-05-17T10:14:22.415Z,4.38
2023-05-17T10:16:51.981Z,3.10
2023-05-17T10:19:21.568Z,3.53
2023-05-17T10:21:52.321Z,4.13
2023-05-17T10:24:21.619Z,2.83
2023-05-17T10:26:51.065Z,3.65
2023-05-17T10:29:21.018Z,4.45
2023-05-17T10:31:51.857Z,4.90
2023-05-17T10:34:20.478Z,3.50
2023-05-17T10:36:51.627Z,4.90
2023-05-17T10:39:19.688Z,4.07
2023-05-17T10:42:06.815Z,3.35
2023-05-17T10:44:42.269Z,4.57
2023-05-17T10:47:11.570Z,3.40
2023-05-17T10:49:41.378Z,2.80
2023-05-17T10:52:18.079Z,3.87
2023-05-17T10:54:48.650Z,3.15
2023-05-17T10:57:49.284Z,2.83
2023-05-17T11:00:21.854Z,3.45
2023-05-17T11:02:50.665Z,3.25
2023-05-17T11:05:25.181Z,4.68
2023-05-17T11:08:13.011Z,2.10
2023-05-17T11:11:00.901Z,4.20
2023-05-17T11:13:28.951Z,4.32
2023-05-17T11:16:06.528Z,3.97
2023-05-17T11:18:48.386Z,3.03
2023-05-17T11:21:16.963Z,2.70
2023-05-17T11:23:48.098Z,3.65
2023-05-17T11:26:23.416Z,4.15
2023-05-17T11:29:01.921Z,4.25
2023-05-17T11:31:33.502Z,4.45
2023-05-17T11:34:03.554Z,4.38
2023-05-17T11:36:31.733Z,2.72
2023-05-17T11:39:12.949Z,3.95
2023-05-17T11:41:48.684Z,4.80
2023-05-17T11:44:19.193Z,3.25
2023-05-17T11:46:47.276Z,2.88
2023-05-17T11:49:27.001Z,3.77
2023-05-17T11:52:01.895Z,2.92
2023-05-17T11:54:32.662Z,3.27
2023-05-17T11:57:02.850Z,5.10
2023-05-17T11:59:30.864Z,5.20
2023-05-17T12:01:58.670Z,11.52
2023-05-17T12:04:28.518Z,6.18
2023-05-17T12:06:57.995Z,4.43
2023-05-17T12:09:26.501Z,4.38
2023-05-17T12:11:56.362Z,2.90
2023-05-17T12:14:24.964Z,4.20
2023-05-17T12:16:56.230Z,2.70
2023-05-17T12:19:27.843Z,4.45
2023-05-17T12:21:55.711Z,3.47
2023-05-17T12:24:23.678Z,3.30
2023-05-17T12:26:51.585Z,5.45
2023-05-17T12:29:23.979Z,4.82
2023-05-17T12:31:53.916Z,3.83
2023-05-17T12:34:22.869Z,3.97
2023-05-17T12:36:52.646Z,4.20
2023-05-17T12:39:23.790Z,3.87
2023-05-17T12:41:52.435Z,4.97
2023-05-17T12:44:22.154Z,3.30
2023-05-17T12:46:53.793Z,3.75
2023-05-17T12:49:22.745Z,3.40
2023-05-17T12:51:50.835Z,3.70
2023-05-17T12:54:28.437Z,4.25
2023-05-17T12:56:56.495Z,3.93
2023-05-17T12:59:26.300Z,2.88
2023-05-17T13:01:57.949Z,3.15
2023-05-17T13:04:31.684Z,4.15
2023-05-17T13:07:01.274Z,4.47
2023-05-17T13:09:31.010Z,5.05
2023-05-17T13:12:00.822Z,3.92
2023-05-17T13:14:37.368Z,4.07
2023-05-17T13:17:06.486Z,3.47
2023-05-17T13:19:35.797Z,3.60
2023-05-17T13:22:03.968Z,3.50
2023-05-17T13:24:32.743Z,4.43
2023-05-17T13:27:00.601Z,3.58
2023-05-17T13:29:38.783Z,3.45
2023-05-17T13:32:12.851Z,4.00
2023-05-17T13:34:41.789Z,3.88
2023-05-17T13:37:12.554Z,3.40
2023-05-17T13:39:41.470Z,3.38
2023-05-17T13:42:09.910Z,4.32
2023-05-17T13:44:38.368Z,3.70
2023-05-17T13:47:06.791Z,4.15
2023-05-17T13:49:36.082Z,4.60
2023-05-17T13:52:08.360Z,3.53
2023-05-17T13:54:36.498Z,5.68
2023-05-17T13:57:05.469Z,10.07
2023-05-17T13:59:33.393Z,7.00
2023-05-17T14:02:01.354Z,5.13
2023-05-17T14:04:29.434Z,3.95
2023-05-17T14:06:58.618Z,4.80
2023-05-17T14:09:26.668Z,4.35
2023-05-17T14:11:54.644Z,7.00
2023-05-17T14:14:25.966Z,4.35
2023-05-17T14:16:53.809Z,4.70
2023-05-17T14:19:21.993Z,5.70
2023-05-17T14:21:50.199Z,5.30
2023-05-17T14:24:19.813Z,4.55
2023-05-17T14:26:47.750Z,4.33
2023-05-17T14:29:15.670Z,4.40
2023-05-17T14:31:43.580Z,5.68
2023-05-17T14:34:11.690Z,5.20
2023-05-17T14:36:39.872Z,4.43
2023-05-17T14:39:07.841Z,4.07
2023-05-17T14:41:39.095Z,3.78
2023-05-17T14:44:07.002Z,3.22
2023-05-17T14:46:35.157Z,3.45
2023-05-17T14:49:03.204Z,3.80
2023-05-17T14:51:31.113Z,5.18
2023-05-17T14:53:59.073Z,4.20
2023-05-17T14:56:27.667Z,4.77
2023-05-17T14:58:57.569Z,5.72
2023-05-17T15:01:25.425Z,4.80
2023-05-17T15:03:53.356Z,4.63
2023-05-17T15:06:24.615Z,4.38
2023-05-17T15:08:52.692Z,6.00
2023-05-17T15:11:21.818Z,5.70
2023-05-17T15:13:49.994Z,4.47
2023-05-17T15:16:19.241Z,5.10
2023-05-17T15:18:47.384Z,5.75
2023-05-17T15:21:17.520Z,5.00
2023-05-17T15:23:45.932Z,4.85
2023-05-17T15:26:13.774Z,4.05
2023-05-17T15:28:41.573Z,4.68
2023-05-17T15:31:10.676Z,5.32
2023-05-17T15:33:40.437Z,5.32
2023-05-17T15:36:09.446Z,4.83
2023-05-17T15:38:38.609Z,5.30
2023-05-17T15:41:07.970Z,6.15
2023-05-17T15:43:36.241Z,6.60
2023-05-17T15:46:04.110Z,6.53
2023-05-17T15:48:32.199Z,5.18
2023-05-17T15:51:01.861Z,5.07
2023-05-17T15:53:30.978Z,5.30
2023-05-17T15:55:59.008Z,7.55
2023-05-17T15:58:28.158Z,7.85
2023-05-17T16:00:56.211Z,6.05
2023-05-17T16:03:24.148Z,5.43
2023-05-17T16:05:52.141Z,5.32
2023-05-17T16:08:21.672Z,5.57
2023-05-17T16:10:49.752Z,6.97
2023-05-17T16:13:17.786Z,5.15
2023-05-17T16:15:45.703Z,5.75
2023-05-17T16:18:15.341Z,5.63
2023-05-17T16:20:43.641Z,6.45
2023-05-17T16:23:11.700Z,4.60
2023-05-17T16:25:41.489Z,6.28
2023-05-17T16:28:09.325Z,7.47
2023-05-17T16:30:37.365Z,5.97
2023-05-17T16:33:08.200Z,7.65
2023-05-17T16:35:36.428Z,7.83
2023-05-17T16:38:04.306Z,6.15
2023-05-17T16:40:32.270Z,6.70
2023-05-17T16:43:02.095Z,7.18
2023-05-17T16:45:30.155Z,6.80
2023-05-17T16:47:58.394Z,7.65
2023-05-17T16:50:26.544Z,8.00
2023-05-17T16:52:54.527Z,7.82
2023-05-17T16:55:22.580Z,6.63
2023-05-17T16:57:51.233Z,8.97
2023-05-17T17:00:21.374Z,7.63
2023-05-17T17:02:49.410Z,6.72
2023-05-17T17:05:17.650Z,8.35
2023-05-17T17:07:47.218Z,6.97
2023-05-17T17:10:15.204Z,6.75
2023-05-17T17:12:43.090Z,6.70
2023-05-17T17:15:11.770Z,6.65
2023-05-17T17:17:41.153Z,6.22
2023-05-17T17:20:10.345Z,7.22
2023-05-17T17:22:38.309Z,6.78
2023-05-17T17:25:07.414Z,6.60
2023-05-17T17:27:35.736Z,7.65
2023-05-17T17:30:03.967Z,7.18
2023-05-17T17:32:32.355Z,5.80
2023-05-17T17:35:01.610Z,6.07
2023-05-17T17:37:29.523Z,7.60
2023-05-17T17:39:57.417Z,7.18
2023-05-17T17:42:25.584Z,6.85
2023-05-17T17:44:54.309Z,6.10
2023-05-17T17:47:22.419Z,6.63
2023-05-17T17:49:50.604Z,5.20
2023-05-17T17:52:19.831Z,5.60
2023-05-17T17:54:47.802Z,5.30
2023-05-17T17:57:15.656Z,6.10
2023-05-17T17:59:43.527Z,6.43
2023-05-17T18:02:11.489Z,6.25
2023-05-17T18:04:40.430Z,6.05
2023-05-17T18:07:08.405Z,6.10
2023-05-17T18:09:38.375Z,5.43
2023-05-17T18:12:06.806Z,6.25
2023-05-17T18:14:34.764Z,5.05
2023-05-17T18:17:02.902Z,5.30
2023-05-17T18:19:30.812Z,6.28
2023-05-17T18:21:58.633Z,6.40
2023-05-17T18:24:26.598Z,5.68
2023-05-17T18:26:55.892Z,6.55
2023-05-17T18:29:23.770Z,5.97
2023-05-17T18:31:52.059Z,7.05
2023-05-17T18:34:20.230Z,7.25
2023-05-17T18:36:48.122Z,5.90
2023-05-17T18:39:16.110Z,6.38
2023-05-17T18:41:44.007Z,6.13
2023-05-17T18:44:15.136Z,6.72
2023-05-17T18:46:44.492Z,6.47
2023-05-17T18:49:12.749Z,5.72
2023-05-17T18:51:40.687Z,5.70
2023-05-17T18:54:09.065Z,6.40
2023-05-17T18:56:36.996Z,7.13
2023-05-17T18:59:05.070Z,5.37
2023-05-17T19:01:34.461Z,5.05
2023-05-17T19:04:02.563Z,6.45
2023-05-17T19:06:31.665Z,5.85
2023-05-17T19:09:00.033Z,6.15
2023-05-17T19:11:28.510Z,6.25
2023-05-17T19:13:56.493Z,5.95
2023-05-17T19:16:24.430Z,6.30
2023-05-17T19:18:53.713Z,6.00
2023-05-17T19:21:21.744Z,6.97
2023-05-17T19:23:49.690Z,6.53
2023-05-17T19:26:17.574Z,8.05
2023-05-17T19:28:45.438Z,6.05
2023-05-17T19:31:13.433Z,5.95
2023-05-17T19:33:41.410Z,5.22
2023-05-17T19:36:10.781Z,7.20
2023-05-17T19:38:38.646Z,6.72
2023-05-17T19:41:07.382Z,6.63
2023-05-17T19:43:35.717Z,8.52
2023-05-17T19:46:04.366Z,6.65
2023-05-17T19:48:32.289Z,6.60
2023-05-17T19:51:00.246Z,5.83
2023-05-17T19:53:37.098Z,5.43
2023-05-17T19:56:16.056Z,6.50
2023-05-17T19:58:43.962Z,6.13
2023-05-17T20:01:12.123Z,8.13
2023-05-17T20:03:40.474Z,5.90
2023-05-17T20:06:11.126Z,5.63
2023-05-17T20:08:40.567Z,6.28
2023-05-17T20:11:08.603Z,8.27
2023-05-17T20:13:39.969Z,5.70
2023-05-17T20:16:12.312Z,7.13
2023-05-17T20:18:42.582Z,8.02
2023-05-17T20:21:11.282Z,6.20
2023-05-17T20:23:41.450Z,6.30
2023-05-17T20:26:15.945Z,7.03
2023-05-17T20:28:43.938Z,6.95
2023-05-17T20:31:12.064Z,8.05
2023-05-17T20:33:39.941Z,6.43
2023-05-17T20:36:09.902Z,6.38
2023-05-17T20:38:37.754Z,8.55
2023-05-17T20:41:07.263Z,6.80
2023-05-17T20:43:36.704Z,6.43
2023-05-17T20:46:06.848Z,7.10
2023-05-17T20:48:34.999Z,6.65
2023-05-17T20:51:03.275Z,6.55
2023-05-17T20:53:31.549Z,6.35
2023-05-17T20:56:00.005Z,6.03
2023-05-17T20:58:29.614Z,6.40
2023-05-17T21:00:57.861Z,5.45
2023-05-17T21:03:28.136Z,6.80
2023-05-17T21:05:56.425Z,6.45
2023-05-17T21:08:24.358Z,5.97
2023-05-17T21:10:52.276Z,7.30
2023-05-17T21:13:21.620Z,8.65
2023-05-17T21:15:50.845Z,6.60
2023-05-17T21:18:18.726Z,6.60
2023-05-17T21:20:46.754Z,7.90
2023-05-17T21:23:14.583Z,5.80
2023-05-17T21:25:42.609Z,7.38
2023-05-17T21:28:10.769Z,7.70
2023-05-17T21:30:38.615Z,6.47
2023-05-17T21:33:08.038Z,7.10
2023-05-17T21:35:36.072Z,6.00
2023-05-17T21:38:03.942Z,5.80
2023-05-17T21:40:32.183Z,5.43
2023-05-17T21:43:00.425Z,7.13
2023-05-17T21:45:28.320Z,7.27
2023-05-17T21:47:56.312Z,7.88
2023-05-17T21:50:25.767Z,8.32
2023-05-17T21:52:53.570Z,6.63
2023-05-17T21:55:21.472Z,7.43
2023-05-17T21:57:49.314Z,8.00
2023-05-17T22:00:17.934Z,6.35
2023-05-17T22:02:46.220Z,6.68
2023-05-17T22:05:15.225Z,7.10
2023-05-17T22:07:44.650Z,5.97
2023-05-17T22:10:13.173Z,8.35
2023-05-17T22:12:41.010Z,9.10
2023-05-17T22:15:09.980Z,6.53
2023-05-17T22:17:48.004Z,7.97
2023-05-17T22:20:23.321Z,9.68
2023-05-17T22:22:52.626Z,7.07
2023-05-17T22:25:20.566Z,6.18
2023-05-17T22:27:48.442Z,7.38
2023-05-17T22:30:16.684Z,7.03
2023-05-17T22:32:44.554Z,8.00
2023-05-17T22:35:12.856Z,6.47
2023-05-17T22:37:42.608Z,7.10
2023-05-17T22:40:12.846Z,6.43
2023-05-17T22:42:40.635Z,7.35
2023-05-17T22:45:09.107Z,7.00
2023-05-17T22:47:37.012Z,7.10
2023-05-17T22:50:05.465Z,6.53
2023-05-17T22:52:33.556Z,7.20
2023-05-17T22:55:02.170Z,6.97
2023-05-17T22:57:31.392Z,7.22
2023-05-17T22:59:59.265Z,7.45
2023-05-17T23:02:27.102Z,6.55
2023-05-17T23:04:55.633Z,7.07
2023-05-17T23:07:23.507Z,8.10
2023-05-17T23:09:53.696Z,6.93
2023-05-17T23:12:21.590Z,6.72
2023-05-17T23:14:50.770Z,6.18
2023-05-17T23:17:18.916Z,7.80
2023-05-17T23:19:46.717Z,7.53
2023-05-17T23:22:14.560Z,6.95
2023-05-17T23:24:42.975Z,6.68
2023-05-17T23:27:12.591Z,8.18
2023-05-17T23:29:41.348Z,8.18
2023-05-17T23:32:10.531Z,7.75
2023-05-17T23:34:38.351Z,7.47
2023-05-17T23:37:06.172Z,7.43
2023-05-17T23:39:34.038Z,6.30
2023-05-17T23:42:01.856Z,7.07
2023-05-17T23:44:30.477Z,6.80
2023-05-17T23:46:59.893Z,9.13
2023-05-17T23:49:29.088Z,7.77
2023-05-17T23:51:57.845Z,7.88
2023-05-17T23:54:25.815Z,7.35
2023-05-17T23:56:53.606Z,7.50
2023-05-17T23:59:24.177Z,7.32
